createdAt,value
2023-04-13T00:02:26.833Z,1.00
2023-04-13T00:07:29.340Z,78.30
2023-04-13T00:12:33.490Z,99.90
2023-04-13T00:17:36.116Z,1.00
2023-04-13T00:22:39.117Z,1.00
2023-04-13T00:27:43.383Z,1.00
2023-04-13T00:32:46.304Z,1.00
2023-04-13T00:37:48.744Z,1.00
2023-04-13T00:42:52.009Z,99.90
2023-04-13T00:47:58.035Z,99.90
2023-04-13T00:53:02.279Z,99.90
2023-04-13T00:58:04.725Z,1.00
2023-04-13T01:03:08.007Z,1.00
2023-04-13T01:08:21.226Z,1.00
2023-04-13T01:13:32.791Z,1.00
2023-04-13T01:18:40.260Z,1.00
2023-04-13T01:24:22.395Z,1.00
2023-04-13T01:29:28.238Z,1.00
2023-04-13T01:34:31.080Z,1.00
2023-04-13T01:39:34.095Z,1.00
2023-04-13T01:44:50.285Z,1.00
2023-04-13T01:50:04.273Z,99.90
2023-04-13T01:55:12.525Z,99.90
2023-04-13T02:00:18.720Z,99.90
2023-04-13T02:05:23.160Z,1.00
2023-04-13T02:10:26.555Z,1.00
2023-04-13T02:15:30.740Z,99.90
2023-04-13T02:20:42.894Z,99.90
2023-04-13T02:25:47.897Z,99.90
2023-04-13T02:30:52.604Z,68.10
2023-04-13T02:35:55.968Z,99.90
2023-04-13T02:41:00.697Z,99.90
2023-04-13T02:46:04.364Z,99.90
2023-04-13T02:51:12.443Z,99.90
2023-04-13T02:56:17.462Z,1.00
2023-04-13T03:01:29.586Z,99.90
2023-04-13T03:06:32.995Z,1.00
2023-04-13T03:11:37.074Z,99.90
2023-04-13T03:16:48.175Z,99.90
2023-04-13T03:21:52.371Z,99.90
2023-04-13T03:26:58.900Z,1.00
2023-04-13T03:32:08.683Z,99.90
2023-04-13T03:37:14.048Z,99.90
2023-04-13T03:42:17.094Z,99.90
2023-04-13T03:47:27.364Z,99.90
2023-04-13T03:52:30.691Z,99.90
2023-04-13T03:57:37.443Z,99.90
2023-04-13T04:02:44.013Z,99.90
2023-04-13T04:07:52.230Z,94.10
2023-04-13T04:12:54.921Z,99.90
2023-04-13T04:17:58.084Z,99.90
2023-04-13T04:23:01.421Z,1.00
2023-04-13T04:28:08.452Z,1.00
2023-04-13T04:33:11.798Z,1.00
2023-04-13T04:38:14.863Z,1.00
2023-04-13T04:43:17.614Z,1.00
2023-04-13T04:48:31.823Z,1.00
2023-04-13T04:53:35.025Z,1.00
2023-04-13T04:58:41.259Z,1.00
2023-04-13T05:03:44.036Z,1.00
2023-04-13T05:08:57.862Z,1.00
2023-04-13T05:14:01.434Z,99.90
2023-04-13T05:19:07.978Z,99.90
2023-04-13T05:24:25.546Z,1.00
2023-04-13T05:29:28.911Z,99.90
2023-04-13T05:34:32.757Z,1.00
2023-04-13T05:39:42.273Z,90.70
2023-04-13T05:44:45.835Z,1.00
2023-04-13T05:49:50.254Z,99.90
2023-04-13T05:54:56.165Z,85.70
2023-04-13T05:59:59.999Z,1.00
2023-04-13T06:05:17.316Z,1.00
2023-04-13T06:10:20.012Z,1.00
2023-04-13T06:15:23.024Z,1.00
2023-04-13T06:20:25.475Z,1.00
2023-04-13T06:25:31.544Z,1.00
2023-04-13T06:30:34.939Z,1.00
2023-04-13T06:35:42.531Z,1.00
2023-04-13T06:40:46.655Z,1.00
2023-04-13T06:45:56.994Z,1.00
2023-04-13T06:50:59.901Z,1.00
2023-04-13T06:56:04.793Z,1.00
2023-04-13T07:01:08.913Z,1.00
2023-04-13T07:06:13.255Z,99.90
2023-04-13T07:11:17.016Z,99.90
2023-04-13T07:16:23.358Z,41.50
2023-04-13T07:21:28.611Z,1.00
2023-04-13T07:26:36.280Z,14.30
2023-04-13T07:31:39.639Z,1.00
2023-04-13T07:36:43.350Z,1.00
2023-04-13T07:41:49.172Z,1.00
2023-04-13T07:46:57.511Z,1.00
2023-04-13T07:52:02.461Z,99.90
2023-04-13T07:57:09.068Z,48.50
2023-04-13T08:02:18.493Z,99.90
2023-04-13T08:07:24.549Z,92.70
2023-04-13T08:12:27.045Z,99.90
2023-04-13T08:17:29.658Z,99.90
2023-04-13T08:22:32.133Z,99.90
2023-04-13T08:27:35.395Z,99.90
2023-04-13T08:32:38.058Z,1.00
2023-04-13T08:37:41.944Z,99.90
2023-04-13T08:42:44.664Z,99.90
2023-04-13T08:47:49.465Z,99.90
2023-04-13T08:52:55.746Z,99.90
2023-04-13T08:58:03.111Z,1.00
2023-04-13T09:03:10.363Z,1.00
2023-04-13T09:08:23.497Z,1.00
2023-04-13T09:13:27.413Z,1.00
2023-04-13T09:18:30.701Z,1.00
2023-04-13T09:23:40.121Z,1.00
2023-04-13T09:28:47.882Z,1.00
2023-04-13T09:33:52.593Z,1.00
2023-04-13T09:38:56.208Z,1.00
2023-04-13T09:44:00.061Z,1.00
2023-04-13T09:49:03.698Z,1.00
2023-04-13T09:54:06.818Z,1.00
2023-04-13T09:59:10.046Z,1.00
2023-04-13T10:04:13.171Z,1.00
2023-04-13T10:09:16.274Z,1.00
2023-04-13T10:14:23.186Z,1.00
2023-04-13T10:19:29.568Z,1.00
2023-04-13T10:24:32.681Z,1.00
2023-04-13T10:29:35.258Z,1.00
2023-04-13T10:34:38.445Z,1.00
2023-04-13T10:39:40.948Z,1.00
2023-04-13T10:44:48.814Z,1.00
2023-04-13T10:49:52.827Z,1.00
2023-04-13T10:54:55.708Z,99.90
2023-04-13T11:00:00.745Z,1.00
2023-04-13T11:05:03.782Z,1.00
2023-04-13T11:10:07.231Z,1.00
2023-04-13T11:15:09.913Z,1.00
2023-04-13T11:20:12.517Z,1.00
2023-04-13T11:25:15.340Z,1.00
2023-04-13T11:30:19.437Z,1.00
2023-04-13T11:35:23.457Z,1.00
2023-04-13T11:40:27.382Z,1.00
2023-04-13T11:45:30.769Z,1.00
2023-04-13T11:50:33.445Z,1.00
2023-04-13T11:55:52.186Z,1.00
2023-04-13T12:00:59.878Z,1.00
2023-04-13T12:06:05.859Z,1.00
2023-04-13T12:11:36.568Z,1.00
2023-04-13T12:21:40.131Z,1.00
2023-04-13T12:27:17.152Z,1.00
2023-04-13T12:32:11.778Z,1.00
2023-04-13T12:37:14.223Z,1.00
2023-04-13T12:42:16.725Z,1.00
2023-04-13T12:47:19.461Z,1.00
2023-04-13T12:52:22.050Z,1.00
2023-04-13T12:57:24.442Z,1.00
2023-04-13T13:02:30.934Z,1.00
2023-04-13T13:07:33.467Z,1.00
2023-04-13T13:12:36.060Z,99.90
2023-04-13T13:17:42.011Z,99.90
2023-04-13T13:22:44.452Z,99.90
2023-04-13T13:32:52.258Z,99.90
2023-04-13T13:37:54.587Z,99.90
2023-04-13T13:42:56.992Z,99.90
2023-04-13T13:47:59.537Z,1.00
2023-04-13T13:53:13.393Z,1.00
2023-04-13T13:58:17.689Z,1.00
2023-04-13T14:03:20.251Z,1.00
2023-04-13T14:08:22.683Z,1.00
2023-04-13T14:13:25.028Z,1.00
2023-04-13T14:18:27.385Z,1.00
2023-04-13T14:23:29.791Z,1.00
2023-04-13T14:28:32.699Z,1.00
2023-04-13T14:33:35.058Z,99.90
2023-04-13T14:38:37.569Z,99.90
2023-04-13T14:43:42.109Z,99.90
2023-04-13T14:48:44.484Z,99.90
2023-04-13T14:53:47.032Z,99.90
2023-04-13T14:58:49.354Z,99.90
2023-04-13T15:03:53.880Z,99.90
2023-04-13T15:08:56.917Z,99.90
2023-04-13T15:13:59.268Z,99.90
2023-04-13T15:19:01.844Z,99.90
2023-04-13T15:24:04.775Z,99.90
2023-04-13T15:29:08.001Z,99.90
2023-04-13T15:34:10.593Z,99.90
2023-04-13T15:39:12.925Z,99.90
2023-04-13T15:44:15.318Z,99.90
2023-04-13T15:49:17.639Z,99.90
2023-04-13T15:54:19.953Z,99.90
2023-04-13T15:59:22.366Z,99.90
2023-04-13T16:04:24.961Z,99.90
2023-04-13T16:09:31.147Z,99.90
2023-04-13T16:14:39.071Z,99.90
2023-04-13T16:19:41.896Z,99.90
2023-04-13T16:24:44.281Z,99.90
2023-04-13T16:29:46.723Z,99.90
2023-04-13T16:34:51.662Z,99.90
2023-04-13T16:39:54.380Z,99.90
2023-04-13T16:44:56.774Z,99.90
2023-04-13T16:49:59.617Z,99.90
2023-04-13T16:55:05.763Z,1.00
2023-04-13T17:00:11.002Z,1.00
2023-04-13T17:05:13.503Z,1.00
2023-04-13T17:10:18.844Z,1.00
2023-04-13T17:15:21.352Z,35.20
2023-04-13T17:20:23.844Z,99.90
2023-04-13T17:25:26.203Z,1.00
2023-04-13T17:30:28.572Z,99.90
2023-04-13T17:35:31.030Z,1.00
2023-04-13T17:40:33.358Z,1.00
2023-04-13T17:45:37.227Z,1.00
2023-04-13T17:50:40.971Z,99.90
2023-04-13T17:55:43.399Z,99.90
2023-04-13T18:00:45.721Z,1.00
2023-04-13T18:05:48.035Z,1.00
2023-04-13T18:10:50.685Z,1.00
2023-04-13T18:15:53.779Z,1.00
2023-04-13T18:20:56.125Z,1.00
2023-04-13T18:25:58.442Z,1.00
2023-04-13T18:31:01.404Z,1.00
2023-04-13T18:36:03.820Z,1.00
2023-04-13T18:41:06.151Z,1.00
2023-04-13T18:46:08.748Z,99.90
2023-04-13T18:51:12.364Z,99.90
2023-04-13T18:56:14.754Z,1.00
2023-04-13T19:01:18.233Z,1.00
2023-04-13T19:06:20.625Z,1.00
2023-04-13T19:11:25.121Z,64.80
2023-04-13T19:16:29.020Z,4.20
2023-04-13T19:21:31.379Z,1.00
2023-04-13T19:26:33.832Z,1.00
2023-04-13T19:31:40.655Z,1.00
2023-04-13T19:36:43.237Z,1.00
2023-04-13T19:41:45.788Z,55.90
2023-04-13T19:46:48.153Z,99.90
2023-04-13T19:51:50.482Z,59.50
2023-04-13T19:56:53.316Z,1.00
2023-04-13T20:01:55.941Z,1.00
2023-04-13T20:07:00.931Z,1.00
2023-04-13T20:12:05.491Z,1.00
2023-04-13T20:17:11.284Z,1.00
2023-04-13T20:22:13.753Z,99.90
2023-04-13T20:27:16.355Z,99.90
2023-04-13T20:32:18.884Z,99.90
2023-04-13T20:37:21.823Z,1.00
2023-04-13T20:42:24.243Z,1.00
2023-04-13T20:47:28.990Z,1.00
2023-04-13T20:52:31.524Z,1.00
2023-04-13T20:57:33.938Z,1.00
2023-04-13T21:02:36.815Z,1.00
2023-04-13T21:07:41.926Z,1.00
2023-04-13T21:12:44.661Z,1.00
2023-04-13T21:17:48.885Z,1.00
2023-04-13T21:22:51.229Z,1.00
2023-04-13T21:27:53.597Z,1.00
2023-04-13T21:32:56.163Z,1.00
2023-04-13T21:37:58.989Z,1.00
2023-04-13T21:43:01.748Z,1.00
2023-04-13T21:48:04.373Z,1.00
2023-04-13T21:53:06.780Z,1.00
2023-04-13T21:58:09.117Z,1.00
2023-04-13T22:03:13.413Z,1.00
2023-04-13T22:08:16.046Z,1.00
2023-04-13T22:13:18.849Z,1.00
2023-04-13T22:18:21.374Z,1.00
2023-04-13T22:23:23.724Z,1.00
2023-04-13T22:28:26.309Z,1.00
2023-04-13T22:33:31.909Z,1.00
2023-04-13T22:38:34.365Z,1.00
2023-04-13T22:43:36.705Z,1.00
2023-04-13T22:48:39.142Z,1.00
2023-04-13T22:53:41.468Z,1.00
2023-04-13T22:58:43.770Z,1.00
2023-04-13T23:03:46.278Z,1.00
2023-04-13T23:08:48.873Z,1.00
2023-04-13T23:13:55.524Z,1.00
2023-04-13T23:18:58.081Z,1.00
2023-04-13T23:24:00.518Z,1.00
2023-04-13T23:29:03.148Z,1.00
2023-04-13T23:34:06.031Z,1.00
2023-04-13T23:39:08.802Z,1.00
2023-04-13T23:44:11.290Z,1.00
2023-04-13T23:49:13.709Z,1.00
2023-04-13T23:54:16.187Z,1.00
2023-04-13T23:59:18.834Z,29.90
